Time;durP1;ratioP1;P1;durP2;ratioP2;P2;SDS_P1;SDS_P2;PMS_P1;PMS_P2;Temp;Humidity;BMP_temperature;BMP_pressure;BME280_temperature;BME280_humidity;BME280_pressure;Samples;Min_cycle;Max_cycle;Signal;HPM_P1;HPM_P2
2023/06/07 00:00:28;;;;;;;6.95;5.82;;;;;;;18.49;60.08;101226.72;7394715;19;20023;-71
2023/06/07 00:02:59;;;;;;;8.65;6.45;;;;;;;18.47;60.08;101229.44;7394940;19;20018;-71
2023/06/07 00:05:31;;;;;;;7.63;6.20;;;;;;;18.46;60.00;101226.84;7395363;19;20015;-71
2023/06/07 00:07:59;;;;;;;6.78;5.80;;;;;;;18.45;60.26;101233.09;7394542;19;20070;-71
2023/06/07 00:10:28;;;;;;;8.07;6.40;;;;;;;18.45;60.43;101227.78;7394423;19;20075;-71
2023/06/07 00:12:57;;;;;;;8.27;6.10;;;;;;;18.44;60.12;101228.72;7394299;19;20471;-71
2023/06/07 00:15:25;;;;;;;10.80;6.50;;;;;;;18.45;60.56;101227.78;7400765;19;20502;-71
2023/06/07 00:17:53;;;;;;;6.93;6.22;;;;;;;18.43;60.19;101222.53;7402045;19;20087;-71
2023/06/07 00:20:25;;;;;;;7.40;6.70;;;;;;;18.42;60.58;101223.47;7401703;19;20026;-71
2023/06/07 00:22:55;;;;;;;9.10;6.80;;;;;;;18.39;60.27;101224.47;7401647;19;20031;-71
2023/06/07 00:25:24;;;;;;;6.68;6.05;;;;;;;18.38;60.83;101220.09;7402138;19;20022;-71
2023/06/07 00:27:53;;;;;;;9.10;6.50;;;;;;;18.37;60.92;101223.72;7401497;19;20082;-71
2023/06/07 00:30:21;;;;;;;6.97;6.30;;;;;;;18.36;60.61;101224.63;7401386;19;20018;-71
2023/06/07 00:32:50;;;;;;;8.48;6.38;;;;;;;18.34;60.65;101221.19;7398877;19;20106;-70
2023/06/07 00:35:18;;;;;;;11.82;7.43;;;;;;;18.33;60.91;101224.75;7401505;19;20019;-71
2023/06/07 00:37:49;;;;;;;7.85;6.38;;;;;;;18.32;61.05;101214.22;7398765;19;20035;-69
2023/06/07 00:40:18;;;;;;;7.70;6.90;;;;;;;18.31;60.98;101221.34;7401391;19;20014;-70
2023/06/07 00:42:46;;;;;;;7.55;6.50;;;;;;;18.30;61.17;101213.41;7401282;19;20022;-70
2023/06/07 00:45:15;;;;;;;7.45;6.75;;;;;;;18.28;60.88;101218.81;7400636;19;20027;-70
2023/06/07 00:47:43;;;;;;;9.82;6.90;;;;;;;18.27;61.34;101226.84;7400674;19;20022;-70
2023/06/07 00:50:13;;;;;;;8.60;7.50;;;;;;;18.24;61.11;101223.41;7397886;19;20027;-70
2023/06/07 00:52:42;;;;;;;6.90;6.20;;;;;;;18.22;61.29;101224.41;7400871;19;20018;-70
2023/06/07 00:55:15;;;;;;;8.32;7.00;;;;;;;18.20;61.08;101223.63;7398247;19;20018;-70
2023/06/07 00:57:44;;;;;;;8.93;6.38;;;;;;;18.18;61.02;101226.34;7400388;19;20074;-70
2023/06/07 01:00:15;;;;;;;8.60;6.97;;;;;;;18.15;61.56;101226.47;7402610;19;20364;-71
2023/06/07 01:02:46;;;;;;;7.38;6.30;;;;;;;18.12;61.15;101223.97;7401034;19;20010;-71
2023/06/07 01:05:15;;;;;;;9.85;6.38;;;;;;;18.09;61.71;101226.75;7397731;19;20037;-70
2023/06/07 01:07:47;;;;;;;7.57;6.63;;;;;;;18.07;61.66;101215.34;7397503;19;20010;-70
2023/06/07 01:10:19;;;;;;;7.47;6.85;;;;;;;18.05;61.55;101218.06;7398192;19;20018;-70
2023/06/07 01:12:53;;;;;;;7.53;6.80;;;;;;;18.04;61.49;101216.34;7401434;19;20042;-66
2023/06/07 01:15:23;;;;;;;9.98;7.03;;;;;;;18.01;61.33;101216.50;7400584;19;20078;-66
2023/06/07 01:17:53;;;;;;;7.43;5.82;;;;;;;18.00;61.39;101220.06;7399990;19;20018;-67
2023/06/07 01:20:27;;;;;;;10.23;6.50;;;;;;;18.00;61.08;101222.72;7398026;19;20054;-68
2023/06/07 01:22:58;;;;;;;8.05;7.20;;;;;;;18.00;61.00;101213.91;7400458;19;20018;-67
2023/06/07 01:25:29;;;;;;;8.23;5.97;;;;;;;17.99;60.93;101223.66;7396256;19;20014;-68
2023/06/07 01:27:58;;;;;;;6.72;5.90;;;;;;;17.99;60.65;101220.16;7400242;19;20018;-67
2023/06/07 01:30:31;;;;;;;6.60;6.00;;;;;;;17.99;60.63;101220.16;7396824;19;20017;-67
2023/06/07 01:33:01;;;;;;;7.95;6.72;;;;;;;17.97;60.46;101206.06;7399668;19;20374;-67
2023/06/07 01:35:30;;;;;;;7.25;6.03;;;;;;;17.98;60.52;101218.44;7399541;19;20022;-67
2023/06/07 01:38:00;;;;;;;8.45;6.07;;;;;;;17.96;60.46;101212.31;7397161;19;20461;-67
2023/06/07 01:40:34;;;;;;;6.85;5.78;;;;;;;17.96;60.26;101207.88;7398711;19;20423;-67
2023/06/07 01:43:04;;;;;;;8.02;5.75;;;;;;;17.95;60.03;101206.16;7396756;19;20553;-66
2023/06/07 01:45:32;;;;;;;5.97;5.38;;;;;;;17.95;59.70;101211.47;7398828;19;20480;-66
2023/06/07 01:48:01;;;;;;;7.57;5.68;;;;;;;17.95;59.80;101205.31;7396533;19;20482;-65
2023/06/07 01:50:30;;;;;;;8.75;6.32;;;;;;;17.96;59.72;101212.31;7396850;19;20082;-66
2023/06/07 01:52:58;;;;;;;6.80;6.13;;;;;;;17.95;59.56;101210.63;7399014;19;20039;-65
2023/06/07 01:55:27;;;;;;;8.27;6.55;;;;;;;17.95;59.80;101214.13;7398548;19;20432;-65
2023/06/07 01:58:12;;;;;;;8.13;6.22;;;;;;;17.94;59.35;101204.44;7399229;19;20416;-67
2023/06/07 02:00:54;;;;;;;6.93;6.03;;;;;;;17.91;59.62;101210.69;7397980;19;20047;-65
2023/06/07 02:03:30;;;;;;;7.07;6.28;;;;;;;17.92;59.72;101211.59;7398186;19;20015;-66
2023/06/07 02:06:04;;;;;;;7.25;6.00;;;;;;;17.91;59.79;101205.41;7398057;19;20361;-66
2023/06/07 02:08:35;;;;;;;9.25;6.03;;;;;;;17.89;59.63;101201.09;7398409;19;20018;-66
2023/06/07 02:11:05;;;;;;;9.80;5.45;;;;;;;17.88;59.52;101199.34;7396496;19;20031;-66
2023/06/07 02:13:42;;;;;;;12.05;6.35;;;;;;;17.87;59.51;101208.28;7396925;19;20100;-66
2023/06/07 02:16:10;;;;;;;7.30;5.70;;;;;;;17.86;59.73;101203.91;7397191;19;20022;-65
2023/06/07 02:18:40;;;;;;;8.88;6.13;;;;;;;17.85;59.50;101208.31;7395983;19;20030;-65
2023/06/07 02:21:09;;;;;;;7.95;5.82;;;;;;;17.86;59.99;101206.56;7396981;19;20025;-66
2023/06/07 02:23:37;;;;;;;6.38;5.68;;;;;;;17.86;59.66;101202.09;7397874;19;20023;-65
2023/06/07 02:26:06;;;;;;;7.35;5.93;;;;;;;17.84;59.77;101201.28;7395898;19;20104;-65
2023/06/07 02:28:37;;;;;;;6.80;5.70;;;;;;;17.84;59.26;101203.09;7395355;19;20537;-65
2023/06/07 02:31:06;;;;;;;5.63;5.03;;;;;;;17.82;59.82;101195.19;7396382;19;20426;-65
2023/06/07 02:33:34;;;;;;;6.95;6.00;;;;;;;17.82;59.34;101200.50;7397467;19;20019;-65
2023/06/07 02:36:03;;;;;;;6.82;5.78;;;;;;;17.82;59.13;101203.16;7397462;19;20018;-65
2023/06/07 02:38:31;;;;;;;8.25;5.78;;;;;;;17.82;59.37;101199.63;7395230;19;20027;-67
2023/06/07 02:40:59;;;;;;;6.75;5.85;;;;;;;17.83;59.28;101201.34;7395988;19;20031;-66
2023/06/07 02:43:28;;;;;;;9.40;5.68;;;;;;;17.82;58.91;101199.63;7397297;19;20014;-67
2023/06/07 02:45:59;;;;;;;11.57;5.85;;;;;;;17.81;58.65;101203.25;7397188;19;20018;-67
2023/06/07 02:48:27;;;;;;;7.75;4.80;;;;;;;17.79;58.59;101199.78;7397514;19;20039;-65
2023/06/07 02:50:56;;;;;;;7.43;5.22;;;;;;;17.78;58.50;101198.94;7394721;19;20086;-65
2023/06/07 02:53:26;;;;;;;7.68;5.47;;;;;;;17.78;58.72;101208.66;7396889;19;20035;-64
2023/06/07 02:55:54;;;;;;;7.05;5.38;;;;;;;17.75;58.24;101196.41;7395002;19;20011;-64
2023/06/07 02:58:24;;;;;;;5.68;5.13;;;;;;;17.75;57.99;101201.72;7394556;19;20018;-62
2023/06/07 03:00:54;;;;;;;6.68;5.13;;;;;;;17.73;57.93;101193.81;7395005;19;20015;-64
2023/06/07 03:03:25;;;;;;;5.90;4.68;;;;;;;17.69;57.30;101200.19;7394780;19;20019;-64
2023/06/07 03:05:54;;;;;;;5.32;4.32;;;;;;;17.65;56.59;101201.25;7396855;19;20091;-64
2023/06/07 03:08:23;;;;;;;7.63;4.88;;;;;;;17.62;56.73;101192.59;7396283;19;20074;-64
2023/06/07 03:10:51;;;;;;;5.45;4.60;;;;;;;17.58;56.62;101199.81;7394327;19;20100;-65
2023/06/07 03:13:19;;;;;;;6.15;4.53;;;;;;;17.54;56.78;101199.09;7394416;19;20038;-65
2023/06/07 03:15:48;;;;;;;6.05;4.28;;;;;;;17.53;56.76;101204.47;7396058;19;20018;-65
2023/06/07 03:18:17;;;;;;;7.25;4.35;;;;;;;17.53;56.55;101200.00;7395995;19;20015;-64
2023/06/07 03:20:48;;;;;;;6.97;4.45;;;;;;;17.52;56.00;101205.38;7395621;19;20018;-64
2023/06/07 03:23:17;;;;;;;5.50;4.57;;;;;;;17.50;55.66;101205.47;7394879;19;20018;-64
2023/06/07 03:25:45;;;;;;;5.38;4.10;;;;;;;17.47;56.00;101202.94;7394007;19;20023;-65
2023/06/07 03:28:14;;;;;;;5.05;3.58;;;;;;;17.47;55.69;101202.94;7394103;19;20105;-65
2023/06/07 03:30:42;;;;;;;5.38;3.70;;;;;;;17.46;55.60;101198.53;7393710;19;20506;-64
2023/06/07 03:33:11;;;;;;;6.93;3.58;;;;;;;17.43;55.43;101207.50;7395267;19;20393;-65
2023/06/07 03:35:39;;;;;;;12.15;4.70;;;;;;;17.44;55.15;101208.38;7395081;19;20014;-65
2023/06/07 03:38:10;;;;;;;4.78;4.10;;;;;;;17.43;54.88;101204.84;7394103;19;20018;-64
2023/06/07 03:40:39;;;;;;;5.90;4.47;;;;;;;17.44;54.60;101211.03;7394464;19;20018;-64
2023/06/07 03:43:07;;;;;;;5.97;3.75;;;;;;;17.45;54.22;101209.22;7393128;19;20026;-66
2023/06/07 03:45:36;;;;;;;9.65;4.30;;;;;;;17.45;54.16;101203.91;7393148;19;20022;-66
2023/06/07 03:48:04;;;;;;;5.70;4.35;;;;;;;17.43;54.00;101202.19;7394420;19;20038;-67
2023/06/07 03:50:33;;;;;;;11.70;4.60;;;;;;;17.43;54.25;101199.53;7393139;19;20031;-68
2023/06/07 03:53:01;;;;;;;7.78;6.05;;;;;;;17.45;54.12;101201.25;7395343;19;20023;-63
2023/06/07 03:55:33;;;;;;;6.30;4.93;;;;;;;17.47;53.49;101204.72;7394829;19;20376;-65
2023/06/07 03:58:01;;;;;;;6.65;5.10;;;;;;;17.46;53.37;101198.53;7393089;19;20011;-65
2023/06/07 04:00:30;;;;;;;5.88;3.97;;;;;;;17.47;52.97;101197.63;7392946;19;20379;-64
2023/06/07 04:02:59;;;;;;;7.00;4.38;;;;;;;17.47;53.04;101202.94;7394804;19;20018;-64
2023/06/07 04:05:28;;;;;;;7.78;5.20;;;;;;;17.48;52.72;101199.34;7394468;19;20037;-68
2023/06/07 04:07:59;;;;;;;6.10;4.43;;;;;;;17.50;52.77;101196.63;7392339;19;20021;-65
2023/06/07 04:10:27;;;;;;;8.70;4.25;;;;;;;17.52;52.48;101206.22;7393352;19;20026;-64
2023/06/07 04:12:58;;;;;;;5.35;4.00;;;;;;;17.53;52.20;101200.00;7391617;19;20368;-65
2023/06/07 04:15:27;;;;;;;6.88;4.68;;;;;;;17.56;51.88;101205.16;7394910;19;20435;-64
2023/06/07 04:17:56;;;;;;;7.68;5.15;;;;;;;17.59;52.01;101206.81;7395003;19;20027;-65
2023/06/07 04:20:24;;;;;;;8.60;3.78;;;;;;;17.62;51.84;101208.50;7394018;19;20035;-65
2023/06/07 04:22:53;;;;;;;6.78;5.07;;;;;;;17.62;51.41;101209.34;7391691;19;20022;-65
2023/06/07 04:25:24;;;;;;;4.32;3.90;;;;;;;17.64;51.38;101206.63;7392215;19;20018;-65
2023/06/07 04:27:59;;;;;;;6.15;5.18;;;;;;;17.65;51.42;101208.34;7392343;19;20015;-65
2023/06/07 04:30:34;;;;;;;6.35;4.60;;;;;;;17.66;50.41;101207.44;7391459;19;20402;-65
2023/06/07 04:33:08;;;;;;;7.28;4.47;;;;;;;17.66;51.00;101205.63;7393782;19;20029;-65
2023/06/07 04:35:37;;;;;;;7.28;4.63;;;;;;;17.68;50.90;101203.78;7391470;19;20014;-65
2023/06/07 04:38:05;;;;;;;7.60;5.18;;;;;;;17.73;51.31;101207.09;7390902;19;20023;-64
2023/06/07 04:40:40;;;;;;;6.68;5.20;;;;;;;17.78;50.66;101198.94;7390507;19;20439;-63
2023/06/07 04:43:11;;;;;;;7.10;5.28;;;;;;;17.82;50.77;101192.56;7392967;19;20378;-65
2023/06/07 04:45:42;;;;;;;6.22;4.72;;;;;;;17.86;50.66;101195.94;7393621;19;20018;-64
2023/06/07 04:48:11;;;;;;;8.07;5.65;;;;;;;17.89;50.65;101193.13;7393410;19;20019;-67
2023/06/07 04:50:41;;;;;;;10.05;5.28;;;;;;;17.92;50.36;101191.19;7392139;19;20015;-69
2023/06/07 04:53:10;;;;;;;9.95;6.15;;;;;;;17.97;50.41;101190.16;7390934;19;20507;-69
2023/06/07 04:55:41;;;;;;;9.35;6.15;;;;;;;18.01;50.08;101189.94;7392903;19;20022;-67
2023/06/07 04:58:10;;;;;;;12.18;6.20;;;;;;;18.05;49.79;101194.19;7392908;19;20010;-67
2023/06/07 05:00:39;;;;;;;8.18;5.15;;;;;;;18.10;49.67;101182.47;7390752;19;20019;-68
2023/06/07 05:03:13;;;;;;;9.90;5.65;;;;;;;18.15;49.51;101194.63;7399050;19;20015;-66
2023/06/07 05:05:42;;;;;;;11.02;5.82;;;;;;;18.20;49.46;101189.09;7400310;19;20015;-67
2023/06/07 05:08:11;;;;;;;6.85;5.22;;;;;;;18.25;49.26;101192.41;7399264;19;20366;-68
2023/06/07 05:10:40;;;;;;;8.05;5.38;;;;;;;18.31;49.41;101191.25;7396906;19;20498;-66
2023/06/07 05:13:08;;;;;;;9.02;5.22;;;;;;;18.38;49.01;101193.53;7397094;19;20026;-67
2023/06/07 05:15:37;;;;;;;7.10;5.03;;;;;;;18.46;48.80;101200.28;7398285;19;20023;-67
2023/06/07 05:18:07;;;;;;;8.38;4.80;;;;;;;18.51;48.49;101191.19;7396578;19;20054;-67
2023/06/07 05:20:38;;;;;;;8.07;4.80;;;;;;;18.59;48.40;101192.56;7397672;19;20025;-67
2023/06/07 05:23:06;;;;;;;7.55;4.93;;;;;;;18.65;48.45;101201.13;7395742;19;20082;-70
2023/06/07 05:25:35;;;;;;;5.85;4.65;;;;;;;18.71;48.64;101208.78;7397558;19;20018;-65
2023/06/07 05:28:04;;;;;;;6.68;4.35;;;;;;;18.78;47.99;101212.03;7398038;19;20042;-66
2023/06/07 05:30:32;;;;;;;10.70;4.75;;;;;;;18.84;48.00;101208.19;7395269;19;20035;-66
2023/06/07 05:33:01;;;;;;;9.35;5.15;;;;;;;18.92;48.04;101208.72;7394863;19;20070;-66
2023/06/07 05:35:29;;;;;;;6.03;4.32;;;;;;;19.00;48.29;101209.19;7397094;19;20027;-68
2023/06/07 05:38:00;;;;;;;6.82;4.25;;;;;;;19.07;47.87;101206.22;7396576;19;20039;-66
2023/06/07 05:40:29;;;;;;;7.60;4.50;;;;;;;19.13;47.85;101205.91;7399394;19;20027;-68
2023/06/07 05:42:57;;;;;;;7.22;4.53;;;;;;;19.20;47.57;101207.34;7395970;19;20027;-67
2023/06/07 05:45:26;;;;;;;7.07;4.63;;;;;;;19.26;47.77;101207.03;7398065;19;20423;-66
2023/06/07 05:47:54;;;;;;;9.18;4.47;;;;;;;19.33;47.49;101210.22;7395961;19;20149;-67
2023/06/07 05:50:23;;;;;;;9.95;4.25;;;;;;;19.42;47.40;101216.88;7398203;19;20019;-66
2023/06/07 05:52:56;;;;;;;5.95;4.38;;;;;;;19.51;47.40;101216.38;7398402;19;20033;-66
2023/06/07 05:55:28;;;;;;;9.15;4.70;;;;;;;19.61;46.94;101217.63;7395989;19;20025;-66
2023/06/07 05:57:57;;;;;;;8.35;4.10;;;;;;;19.72;46.61;101216.22;7396822;19;20010;-66
2023/06/07 06:00:26;;;;;;;5.78;4.07;;;;;;;19.82;46.41;101212.13;7396230;19;20023;-66
2023/06/07 06:02:56;;;;;;;8.00;3.75;;;;;;;19.90;45.82;101212.59;7395773;19;20042;-67
2023/06/07 06:05:27;;;;;;;6.15;3.30;;;;;;;19.97;45.20;101208.66;7397580;19;20073;-67
2023/06/07 06:07:55;;;;;;;5.00;3.70;;;;;;;20.06;45.25;101211.78;7396376;19;20018;-66
2023/06/07 06:10:27;;;;;;;5.18;3.25;;;;;;;20.13;44.70;101213.16;7394909;19;20435;-66
2023/06/07 06:12:56;;;;;;;4.80;3.55;;;;;;;20.22;44.97;101210.00;7396980;19;20466;-66
2023/06/07 06:15:24;;;;;;;6.78;3.70;;;;;;;20.31;44.78;101217.47;7394948;19;20489;-67
2023/06/07 06:17:54;;;;;;;5.15;3.33;;;;;;;20.42;43.96;101224.00;7395033;19;20027;-66
2023/06/07 06:20:22;;;;;;;5.55;3.35;;;;;;;20.50;43.60;101227.97;7395279;19;20018;-65
2023/06/07 06:22:51;;;;;;;3.95;3.10;;;;;;;20.59;43.69;101223.94;7397132;19;20039;-65
2023/06/07 06:25:19;;;;;;;8.88;3.10;;;;;;;20.68;42.80;101220.75;7395418;19;20027;-66
2023/06/07 06:27:50;;;;;;;5.55;3.75;;;;;;;20.78;42.96;101220.28;7395117;19;20403;-67
2023/06/07 06:30:20;;;;;;;5.65;2.92;;;;;;;20.86;42.54;101223.34;7396387;19;20477;-67
2023/06/07 06:32:55;;;;;;;5.60;3.28;;;;;;;20.94;42.35;101226.44;7394782;19;20426;-66
2023/06/07 06:35:24;;;;;;;6.22;3.03;;;;;;;21.04;42.54;101236.56;7397505;19;20037;-66
2023/06/07 06:37:52;;;;;;;5.75;3.42;;;;;;;21.12;41.83;101227.16;7396878;19;20031;-67
2023/06/07 06:40:22;;;;;;;5.90;3.13;;;;;;;21.21;41.96;101223.09;7396281;19;20435;-66
2023/06/07 06:42:53;;;;;;;6.53;3.50;;;;;;;21.27;41.78;101221.88;7396392;19;20022;-69
2023/06/07 06:45:22;;;;;;;5.78;3.10;;;;;;;21.36;41.23;101220.44;7394669;19;20015;-69
2023/06/07 06:47:50;;;;;;;3.60;3.05;;;;;;;21.44;41.26;101224.38;7397149;19;20025;-70
2023/06/07 06:50:19;;;;;;;6.28;2.97;;;;;;;21.52;41.26;101223.06;7395897;19;20078;-67
2023/06/07 06:52:47;;;;;;;7.45;2.88;;;;;;;21.58;40.67;101228.06;7393287;19;20019;-66
2023/06/07 06:55:16;;;;;;;4.05;2.80;;;;;;;21.63;40.96;101229.53;7396434;19;20032;-66
2023/06/07 06:57:44;;;;;;;4.70;2.60;;;;;;;21.72;40.59;101235.25;7395803;19;20023;-66
2023/06/07 07:00:16;;;;;;;4.65;3.00;;;;;;;21.80;40.15;101227.63;7393789;19;20011;-66
2023/06/07 07:02:45;;;;;;;3.53;2.50;;;;;;;21.86;39.65;101221.03;7397481;19;20018;-66
2023/06/07 07:05:15;;;;;;;5.93;2.50;;;;;;;21.90;40.12;101231.44;7396570;19;20014;-66
2023/06/07 07:07:43;;;;;;;6.00;2.80;;;;;;;21.95;39.85;101216.00;7395862;19;20014;-66
2023/06/07 07:10:12;;;;;;;9.55;3.92;;;;;;;22.04;39.58;101219.03;7395756;19;20022;-67
2023/06/07 07:12:41;;;;;;;6.82;3.75;;;;;;;22.10;38.99;101224.88;7394736;19;20084;-66
2023/06/07 07:15:10;;;;;;;5.20;3.45;;;;;;;22.13;38.30;101230.00;7395418;19;20144;-66
2023/06/07 07:17:47;;;;;;;6.68;2.65;;;;;;;22.19;37.70;101226.09;7393983;19;20498;-66
2023/06/07 07:20:17;;;;;;;6.45;3.78;;;;;;;22.24;37.98;101226.66;7394079;19;20018;-66
2023/06/07 07:22:46;;;;;;;6.57;2.83;;;;;;;22.30;37.62;101222.72;7393704;19;20014;-66
2023/06/07 07:25:15;;;;;;;5.65;2.90;;;;;;;22.36;37.42;101218.81;7392340;19;20018;-66
2023/06/07 07:27:44;;;;;;;4.70;2.17;;;;;;;22.41;37.25;101216.75;7394077;19;20031;-66
2023/06/07 07:30:13;;;;;;;4.28;2.10;;;;;;;22.47;37.15;101221.69;7393307;19;20492;-66
2023/06/07 07:32:45;;;;;;;9.27;2.67;;;;;;;22.51;36.54;101220.53;7395498;19;20031;-66
2023/06/07 07:35:13;;;;;;;4.93;2.50;;;;;;;22.55;36.35;101219.38;7395541;19;20042;-67
2023/06/07 07:37:42;;;;;;;4.80;2.15;;;;;;;22.57;36.21;101222.81;7393265;19;20582;-67
2023/06/07 07:40:12;;;;;;;4.28;2.63;;;;;;;22.59;36.12;101223.56;7394819;19;20492;-66
2023/06/07 07:42:40;;;;;;;4.40;2.33;;;;;;;22.65;36.40;101224.13;7393585;19;20094;-66
2023/06/07 07:45:10;;;;;;;6.10;2.67;;;;;;;22.67;35.80;101225.75;7395101;19;20031;-66
2023/06/07 07:47:39;;;;;;;3.20;2.90;;;;;;;22.70;35.88;101225.53;7392726;19;20495;-66
2023/06/07 07:50:18;;;;;;;4.35;2.90;;;;;;;22.77;35.41;101226.88;7392971;19;20014;-65
2023/06/07 07:52:46;;;;;;;4.28;2.30;;;;;;;22.83;35.28;101222.06;7392928;19;20039;-67
2023/06/07 07:55:14;;;;;;;5.75;2.70;;;;;;;22.87;35.54;101220.91;7393968;19;20141;-66
2023/06/07 07:57:43;;;;;;;4.30;2.28;;;;;;;22.89;35.10;101225.19;7393341;19;20022;-66
2023/06/07 08:00:13;;;;;;;6.10;3.05;;;;;;;22.97;35.02;101229.16;7391810;19;20498;-66
2023/06/07 08:02:41;;;;;;;5.07;3.40;;;;;;;23.05;34.86;101225.03;7392199;19;20018;-65
2023/06/07 08:05:11;;;;;;;4.47;2.60;;;;;;;23.16;35.22;101227.00;7394017;19;20022;-65
2023/06/07 08:07:42;;;;;;;6.38;2.30;;;;;;;23.26;34.43;101225.41;7392512;19;20015;-66
2023/06/07 08:10:13;;;;;;;8.52;2.65;;;;;;;23.36;34.45;101219.44;7391979;19;20018;-65
2023/06/07 08:12:41;;;;;;;5.18;2.47;;;;;;;23.47;34.57;101224.94;7391884;19;20382;-66
2023/06/07 08:15:11;;;;;;;6.32;2.30;;;;;;;23.55;34.11;101217.19;7392010;19;20015;-65
2023/06/07 08:17:39;;;;;;;6.20;2.58;;;;;;;23.65;34.28;101219.25;7392173;19;20019;-66
2023/06/07 08:20:09;;;;;;;4.93;2.42;;;;;;;23.76;34.17;101224.72;7392067;19;20383;-66
2023/06/07 08:22:38;;;;;;;3.72;3.10;;;;;;;23.86;34.13;101215.06;7392068;19;20019;-71
2023/06/07 08:25:10;;;;;;;4.55;2.65;;;;;;;23.94;34.01;101217.25;7393455;19;20021;-68
2023/06/07 08:27:38;;;;;;;6.45;2.80;;;;;;;24.02;33.96;101219.38;7394235;19;20011;-67
2023/06/07 08:30:09;;;;;;;6.25;3.38;;;;;;;24.07;34.08;101214.53;7393581;19;20015;-67
2023/06/07 08:32:37;;;;;;;5.35;2.40;;;;;;;24.13;34.13;101211.41;7392027;19;20022;-67
2023/06/07 08:35:07;;;;;;;5.88;2.53;;;;;;;24.22;33.62;101210.75;7395702;19;20010;-67
2023/06/07 08:37:36;;;;;;;5.35;2.53;;;;;;;24.30;33.51;101218.25;7401015;19;20022;-67
2023/06/07 08:40:05;;;;;;;4.55;2.35;;;;;;;24.39;33.35;101222.94;7398322;19;20023;-67
2023/06/07 08:42:37;;;;;;;9.07;2.70;;;;;;;24.48;33.13;101215.19;7400591;19;20486;-67
2023/06/07 08:45:07;;;;;;;5.47;2.40;;;;;;;24.55;33.48;101217.31;7398863;19;20026;-67
2023/06/07 08:47:36;;;;;;;6.55;2.90;;;;;;;24.61;33.71;101216.00;7397991;19;20036;-68
2023/06/07 08:50:05;;;;;;;3.92;2.72;;;;;;;24.68;33.33;101221.78;7400367;19;20025;-67
2023/06/07 08:52:34;;;;;;;7.93;3.13;;;;;;;24.73;33.32;101219.63;7397386;19;20027;-67
2023/06/07 08:55:06;;;;;;;4.78;2.58;;;;;;;24.79;32.99;101219.16;7397573;19;20022;-68
2023/06/07 08:57:37;;;;;;;4.10;2.87;;;;;;;24.84;33.08;101219.66;7400719;19;20118;-67
2023/06/07 09:00:10;;;;;;;4.00;2.70;;;;;;;24.86;32.82;101211.53;7397323;19;20011;-67
2023/06/07 09:02:39;;;;;;;6.57;2.92;;;;;;;24.86;32.96;101209.69;7400698;19;20027;-67
2023/06/07 09:05:09;;;;;;;4.75;2.50;;;;;;;24.89;33.49;101208.59;7397487;19;20019;-67
2023/06/07 09:07:38;;;;;;;3.97;2.75;;;;;;;24.93;33.20;101214.59;7397771;19;20019;-67
2023/06/07 09:10:08;;;;;;;6.55;2.70;;;;;;;24.95;33.30;101205.47;7399916;19;20018;-67
2023/06/07 09:12:39;;;;;;;5.43;2.75;;;;;;;24.96;33.30;101214.34;7398251;19;20020;-67
2023/06/07 09:15:10;;;;;;;6.82;2.70;;;;;;;24.95;32.77;101213.50;7400007;19;20035;-67
2023/06/07 09:17:56;;;;;;;4.35;2.28;;;;;;;24.96;32.39;101209.00;7400503;19;20018;-67
2023/06/07 09:20:25;;;;;;;3.97;2.70;;;;;;;24.96;32.87;101206.31;7399454;19;20014;-67
2023/06/07 09:23:06;;;;;;;4.00;2.60;;;;;;;24.97;32.59;101208.03;7399548;19;20023;-68
2023/06/07 09:25:35;;;;;;;8.55;2.78;;;;;;;24.99;32.68;101208.78;7399848;19;20025;-68
2023/06/07 09:28:11;;;;;;;3.40;2.45;;;;;;;25.01;32.46;101207.69;7399895;19;20022;-68
2023/06/07 09:30:54;;;;;;;5.30;2.70;;;;;;;25.03;32.50;101207.56;7399165;19;20031;-68
2023/06/07 09:33:33;;;;;;;3.60;2.88;;;;;;;25.04;33.04;101203.91;7397200;19;20014;-68
2023/06/07 09:36:06;;;;;;;4.82;2.70;;;;;;;25.10;32.49;101208.81;7398907;19;20038;-68
2023/06/07 09:38:35;;;;;;;5.63;2.70;;;;;;;25.13;32.56;101203.19;7399098;19;20019;-68
2023/06/07 09:41:04;;;;;;;3.85;2.63;;;;;;;25.20;32.96;101206.28;7398219;19;20018;-68
2023/06/07 09:43:46;;;;;;;5.82;2.83;;;;;;;25.33;32.89;101203.50;7396438;19;20435;-68
2023/06/07 09:46:16;;;;;;;5.28;2.90;;;;;;;25.45;32.45;101199.91;7397549;19;20034;-69
2023/06/07 09:48:51;;;;;;;4.63;2.58;;;;;;;25.56;31.99;101198.22;7398208;19;20431;-69
2023/06/07 09:51:21;;;;;;;2.97;2.22;;;;;;;25.60;31.81;101195.16;7397540;19;20018;-68
2023/06/07 09:53:57;;;;;;;5.25;2.83;;;;;;;25.64;32.21;101193.94;7398287;19;20369;-68
2023/06/07 09:56:27;;;;;;;6.88;3.08;;;;;;;25.74;31.77;101191.38;7398515;19;20017;-68
2023/06/07 09:59:12;;;;;;;4.55;2.90;;;;;;;25.84;31.40;101184.31;7398503;19;20022;-68
2023/06/07 10:01:45;;;;;;;3.08;2.45;;;;;;;25.96;31.52;101184.31;7396521;19;20517;-69
2023/06/07 10:04:14;;;;;;;5.68;2.70;;;;;;;26.05;30.84;101182.72;7396540;19;20018;-68
2023/06/07 10:06:44;;;;;;;4.15;2.53;;;;;;;26.13;30.57;101185.66;7398451;19;20018;-69
2023/06/07 10:09:14;;;;;;;2.83;2.13;;;;;;;26.21;30.22;101185.03;7397633;19;20019;-68
2023/06/07 10:11:47;;;;;;;5.93;2.80;;;;;;;26.29;29.74;101178.06;7395651;19;20027;-67
2023/06/07 10:14:20;;;;;;;8.55;2.88;;;;;;;26.41;29.65;101173.53;7397368;19;20025;-68
2023/06/07 10:16:54;;;;;;;6.88;2.55;;;;;;;26.49;29.56;101172.88;7396403;19;20367;-68
2023/06/07 10:19:28;;;;;;;6.35;3.00;;;;;;;26.56;29.09;101163.28;7398078;19;20027;-68
2023/06/07 10:22:00;;;;;;;6.50;2.40;;;;;;;26.67;29.26;101167.78;7396840;19;20018;-70
2023/06/07 10:24:39;;;;;;;4.53;2.88;;;;;;;26.82;28.78;101173.78;7398262;19;20023;-67
2023/06/07 10:27:13;;;;;;;3.58;2.25;;;;;;;26.95;28.55;101170.88;7395191;19;20035;-69
2023/06/07 10:29:54;;;;;;;4.95;2.20;;;;;;;27.06;28.95;101170.81;7397069;19;20021;-69
2023/06/07 10:32:29;;;;;;;4.80;2.30;;;;;;;27.19;28.16;101173.31;7394764;19;20019;-68
2023/06/07 10:34:58;;;;;;;4.47;2.88;;;;;;;27.29;27.91;101160.75;7394749;19;20479;-68
2023/06/07 10:37:30;;;;;;;4.00;2.45;;;;;;;27.37;27.56;101165.47;7396363;19;20587;-68
2023/06/07 10:39:59;;;;;;;4.65;2.65;;;;;;;27.43;27.30;101164.97;7395442;19;20418;-70
2023/06/07 10:42:28;;;;;;;6.10;3.00;;;;;;;27.47;27.32;101155.66;7394998;19;20019;-68
2023/06/07 10:44:59;;;;;;;3.80;2.40;;;;;;;27.51;27.17;101158.09;7396740;19;20086;-70
2023/06/07 10:47:29;;;;;;;6.57;2.92;;;;;;;27.44;27.06;101160.47;7395231;19;20170;-68
2023/06/07 10:49:58;;;;;;;6.07;2.47;;;;;;;27.38;26.75;101164.50;7394882;19;20019;-67
2023/06/07 10:52:27;;;;;;;7.15;2.72;;;;;;;27.30;26.64;101164.34;7394620;19;20026;-68
2023/06/07 10:54:56;;;;;;;6.00;2.53;;;;;;;27.30;26.01;101161.63;7394963;19;20039;-68
2023/06/07 10:57:38;;;;;;;4.72;1.98;;;;;;;27.30;26.25;101161.63;7394658;19;20027;-68
2023/06/07 11:00:32;;;;;;;4.25;2.20;;;;;;;27.34;25.99;101154.16;7393571;19;20010;-68
2023/06/07 11:03:37;;;;;;;2.45;1.88;;;;;;;27.44;26.11;101155.91;7394569;19;20022;-69
2023/06/07 11:06:06;;;;;;;5.40;2.58;;;;;;;27.60;26.57;101155.44;7394851;19;20027;-68
2023/06/07 11:08:36;;;;;;;4.82;2.67;;;;;;;27.77;26.20;101151.25;7393606;19;20041;-69
2023/06/07 11:11:06;;;;;;;3.25;2.60;;;;;;;27.96;25.98;101146.91;7395222;19;20025;-68
2023/06/07 11:14:17;;;;;;;4.25;2.80;;;;;;;28.17;25.06;101151.38;7393896;19;20018;-68
2023/06/07 11:16:48;;;;;;;5.05;2.63;;;;;;;28.29;24.96;101148.44;7393826;19;20010;-69
2023/06/07 11:19:19;;;;;;;4.30;2.58;;;;;;;28.37;25.33;101145.06;7394079;19;20026;-68
2023/06/07 11:22:07;;;;;;;7.82;2.60;;;;;;;28.47;25.03;101155.84;7392883;19;20030;-68
2023/06/07 11:24:38;;;;;;;4.60;2.50;;;;;;;28.60;25.43;101145.63;7394810;19;20011;-69
2023/06/07 11:27:14;;;;;;;4.05;2.83;;;;;;;28.76;25.33;101155.91;7393056;19;20014;-68
2023/06/07 11:29:43;;;;;;;7.22;2.67;;;;;;;28.90;25.19;101156.44;7394943;19;20014;-69
2023/06/07 11:32:14;;;;;;;5.50;2.97;;;;;;;29.06;25.05;101145.91;7393426;19;20037;-71
2023/06/07 11:34:42;;;;;;;8.40;2.85;;;;;;;29.26;25.26;101140.47;7393916;19;20018;-70
2023/06/07 11:37:13;;;;;;;4.15;2.92;;;;;;;29.48;24.90;101138.44;7395250;19;20035;-68
2023/06/07 11:39:42;;;;;;;4.32;2.70;;;;;;;29.70;24.50;101138.06;7393595;19;20083;-69